createdAt,value
2018-07-12T00:00:22.683Z,15.86
2018-07-12T00:01:31.547Z,15.87
2018-07-12T00:02:40.406Z,15.89
2018-07-12T00:03:49.268Z,15.87
2018-07-12T00:04:58.400Z,15.86
2018-07-12T00:06:07.360Z,15.78
2018-07-12T00:07:16.219Z,15.8
2018-07-12T00:08:25.078Z,15.84
2018-07-12T00:09:34.214Z,15.84
2018-07-12T00:10:43.075Z,15.86
2018-07-12T00:11:52.084Z,15.89
2018-07-12T00:13:00.943Z,15.84
2018-07-12T00:14:09.802Z,15.76
2018-07-12T00:15:18.664Z,15.82
2018-07-12T00:16:27.800Z,15.8
2018-07-12T00:17:36.662Z,15.87
2018-07-12T00:18:45.800Z,15.84
2018-07-12T00:19:54.937Z,15.83
2018-07-12T00:21:03.799Z,15.86
2018-07-12T00:22:12.664Z,15.93
2018-07-12T00:23:21.796Z,15.94
2018-07-12T00:24:30.660Z,15.94
2018-07-12T00:25:40.073Z,16.01
2018-07-12T00:26:48.936Z,15.93
2018-07-12T00:27:57.796Z,15.9
2018-07-12T00:29:07.090Z,15.97
2018-07-12T00:30:15.949Z,15.87
2018-07-12T00:31:25.093Z,15.93
2018-07-12T00:32:33.951Z,16
2018-07-12T00:33:43.198Z,15.9
2018-07-12T00:34:52.456Z,15.89
2018-07-12T00:36:01.317Z,15.94
2018-07-12T00:37:10.176Z,15.92
2018-07-12T00:38:19.318Z,15.94
2018-07-12T00:39:28.177Z,15.93
2018-07-12T00:40:37.187Z,15.96
2018-07-12T00:41:46.049Z,15.94
2018-07-12T00:42:54.909Z,15.93
2018-07-12T00:44:03.772Z,16
2018-07-12T00:45:12.631Z,15.92
2018-07-12T00:46:22.116Z,15.94
2018-07-12T00:47:30.974Z,16
2018-07-12T00:48:39.833Z,16
2018-07-12T00:49:48.695Z,16
2018-07-12T00:50:57.553Z,16
2018-07-12T00:52:06.564Z,15.97
2018-07-12T00:53:15.423Z,15.97
2018-07-12T00:54:24.281Z,15.93
2018-07-12T00:55:33.414Z,15.93
2018-07-12T00:56:42.279Z,15.9
2018-07-12T00:57:51.570Z,15.92
2018-07-12T00:59:00.430Z,15.89
2018-07-12T01:00:09.290Z,15.96
2018-07-12T01:01:18.153Z,16
2018-07-12T01:02:27.012Z,15.93
2018-07-12T01:03:35.874Z,15.9
2018-07-12T01:04:44.733Z,15.87
2018-07-12T01:05:53.594Z,15.84
2018-07-12T01:07:02.453Z,15.8
2018-07-12T01:08:11.311Z,15.84
2018-07-12T01:09:20.324Z,15.78
2018-07-12T01:10:29.182Z,15.78
2018-07-12T01:11:38.041Z,15.84
2018-07-12T01:12:46.899Z,15.74
2018-07-12T01:13:56.037Z,15.68
2018-07-12T01:15:04.896Z,15.75
2018-07-12T01:16:13.757Z,15.76
2018-07-12T01:17:22.616Z,15.76
2018-07-12T01:18:32.028Z,15.65
2018-07-12T01:19:40.890Z,15.67
2018-07-12T01:20:50.027Z,15.65
2018-07-12T01:21:58.891Z,15.71
2018-07-12T01:23:08.308Z,15.64
2018-07-12T01:24:17.454Z,15.68
2018-07-12T01:25:26.311Z,15.72
2018-07-12T01:26:35.172Z,15.71
2018-07-12T01:27:44.040Z,15.74
2018-07-12T01:28:53.176Z,15.72
2018-07-12T01:30:02.038Z,15.71
2018-07-12T01:31:10.893Z,15.72
2018-07-12T01:32:19.756Z,15.69
2018-07-12T01:33:28.887Z,15.69
2018-07-12T01:34:37.745Z,15.75
2018-07-12T01:35:46.883Z,15.62
2018-07-12T01:36:56.025Z,15.69
2018-07-12T01:38:04.884Z,15.65
2018-07-12T01:39:14.026Z,15.6
2018-07-12T01:40:22.883Z,15.68
2018-07-12T01:41:31.744Z,15.6
2018-07-12T01:42:40.601Z,15.68
2018-07-12T01:43:49.610Z,15.67
2018-07-12T01:44:58.744Z,15.57
2018-07-12T01:46:07.882Z,15.72
2018-07-12T01:47:17.023Z,15.67
2018-07-12T01:48:25.880Z,15.6
2018-07-12T01:49:35.023Z,15.74
2018-07-12T01:50:43.881Z,15.65
2018-07-12T01:51:53.018Z,15.72
2018-07-12T01:53:02.155Z,15.65
2018-07-12T01:54:11.014Z,15.68
2018-07-12T01:55:19.976Z,15.67
2018-07-12T01:56:28.836Z,15.71
2018-07-12T01:57:37.694Z,15.64
2018-07-12T01:58:46.833Z,15.71
2018-07-12T01:59:55.697Z,15.69
2018-07-12T02:01:04.554Z,15.74
2018-07-12T02:02:13.411Z,15.74
2018-07-12T02:03:22.551Z,15.65
2018-07-12T02:04:31.969Z,15.68
2018-07-12T02:05:41.109Z,15.64
2018-07-12T02:06:50.119Z,15.71
2018-07-12T02:07:58.982Z,15.65
2018-07-12T02:09:08.116Z,15.67
2018-07-12T02:10:16.980Z,15.71
2018-07-12T02:11:25.837Z,15.68
2018-07-12T02:12:34.795Z,15.64
2018-07-12T02:13:43.657Z,15.68
2018-07-12T02:14:52.515Z,15.67
2018-07-12T02:16:01.374Z,15.72
2018-07-12T02:17:10.511Z,15.65
2018-07-12T02:18:19.723Z,15.67
2018-07-12T02:19:28.577Z,15.71
2018-07-12T02:20:37.438Z,15.62
2018-07-12T02:21:46.298Z,15.62
2018-07-12T02:22:55.157Z,15.67
2018-07-12T02:24:04.013Z,15.69
2018-07-12T02:25:12.876Z,15.57
2018-07-12T02:26:21.734Z,15.68
2018-07-12T02:27:30.652Z,15.6
2018-07-12T02:28:39.464Z,15.65
2018-07-12T02:29:48.475Z,15.69
2018-07-12T02:30:57.610Z,15.62
2018-07-12T02:32:06.478Z,15.6
2018-07-12T02:33:15.616Z,15.6
2018-07-12T02:34:24.753Z,15.62
2018-07-12T02:35:34.271Z,15.64
2018-07-12T02:36:43.409Z,15.57
2018-07-12T02:37:52.551Z,15.57
2018-07-12T02:39:01.697Z,15.68
2018-07-12T02:40:10.838Z,15.67
2018-07-12T02:41:20.079Z,15.56
2018-07-12T02:42:28.949Z,15.56
2018-07-12T02:43:38.085Z,15.6
2018-07-12T02:44:47.771Z,15.65
2018-07-12T02:45:57.196Z,15.59
2018-07-12T02:47:06.690Z,15.64
2018-07-12T02:48:16.382Z,15.57
2018-07-12T02:49:25.521Z,15.59
2018-07-12T02:50:34.933Z,15.62
2018-07-12T02:51:44.072Z,15.62
2018-07-12T02:52:53.038Z,15.57
2018-07-12T02:54:02.469Z,15.57
2018-07-12T02:55:12.170Z,15.6
2018-07-12T02:56:21.586Z,15.59
2018-07-12T02:57:30.448Z,15.57
2018-07-12T02:58:39.309Z,15.57
2018-07-12T02:59:48.167Z,15.67
2018-07-12T03:00:57.031Z,15.62
2018-07-12T03:02:06.170Z,15.56
2018-07-12T03:03:15.314Z,15.56
2018-07-12T03:04:24.753Z,15.67
2018-07-12T03:05:33.896Z,15.54
2018-07-12T03:06:42.762Z,15.5
2018-07-12T03:07:51.901Z,15.53
2018-07-12T03:09:01.622Z,15.51
2018-07-12T03:10:10.875Z,15.57
2018-07-12T03:11:20.288Z,15.57
2018-07-12T03:12:29.712Z,15.59
2018-07-12T03:13:38.859Z,15.53
2018-07-12T03:14:47.707Z,15.54
2018-07-12T03:15:56.843Z,15.56
2018-07-12T03:17:05.706Z,15.56
2018-07-12T03:18:14.572Z,15.53
2018-07-12T03:19:23.437Z,15.56
2018-07-12T03:20:32.573Z,15.51
2018-07-12T03:21:41.588Z,15.36
2018-07-12T03:22:51.012Z,15.38
2018-07-12T03:23:59.872Z,15.39
2018-07-12T03:25:09.014Z,15.49
2018-07-12T03:26:17.872Z,15.44
2018-07-12T03:27:27.015Z,15.39
2018-07-12T03:28:35.871Z,15.49
2018-07-12T03:29:44.730Z,15.51
2018-07-12T03:30:53.876Z,15.38
2018-07-12T03:32:03.297Z,15.47
2018-07-12T03:33:12.316Z,15.38
2018-07-12T03:34:21.175Z,15.47
2018-07-12T03:35:30.037Z,15.44
2018-07-12T03:36:38.896Z,15.34
2018-07-12T03:37:48.031Z,15.38
2018-07-12T03:38:56.888Z,15.44
2018-07-12T03:40:05.757Z,15.44
2018-07-12T03:41:14.612Z,15.53
2018-07-12T03:42:23.470Z,15.46
2018-07-12T03:43:32.329Z,15.49
2018-07-12T03:44:41.468Z,15.36
2018-07-12T03:45:50.603Z,15.36
2018-07-12T03:46:59.461Z,15.21
2018-07-12T03:48:08.323Z,15.32
2018-07-12T03:49:17.181Z,15.38
2018-07-12T03:50:26.699Z,15.25
2018-07-12T03:51:35.836Z,15.32
2018-07-12T03:52:44.694Z,15.27
2018-07-12T03:53:53.554Z,15.28
2018-07-12T03:55:02.416Z,15.27
2018-07-12T03:56:11.272Z,15.32
2018-07-12T03:57:20.410Z,15.21
2018-07-12T03:58:29.548Z,15.23
2018-07-12T03:59:38.405Z,15.25
2018-07-12T04:00:47.542Z,15.23
2018-07-12T04:01:56.551Z,15.29
2018-07-12T04:03:05.409Z,15.32
2018-07-12T04:04:14.268Z,15.29
2018-07-12T04:05:23.126Z,15.29
2018-07-12T04:06:31.985Z,15.25
2018-07-12T04:07:41.545Z,15.34
2018-07-12T04:08:50.406Z,15.38
2018-07-12T04:09:59.263Z,15.28
2018-07-12T04:11:08.122Z,15.25
2018-07-12T04:12:16.981Z,15.29
2018-07-12T04:13:26.467Z,15.28
2018-07-12T04:14:35.326Z,15.28
2018-07-12T04:15:44.185Z,15.25
2018-07-12T04:16:53.044Z,15.28
2018-07-12T04:18:01.908Z,15.25
2018-07-12T04:19:10.919Z,15.31
2018-07-12T04:20:19.777Z,15.29
2018-07-12T04:21:28.637Z,15.27
2018-07-12T04:22:37.498Z,15.23
2018-07-12T04:23:46.362Z,15.25
2018-07-12T04:24:55.219Z,15.28
2018-07-12T04:26:04.080Z,15.38
2018-07-12T04:27:13.225Z,15.34
2018-07-12T04:28:22.083Z,15.29
2018-07-12T04:29:31.222Z,15.29
2018-07-12T04:30:40.231Z,15.27
2018-07-12T04:31:49.368Z,15.27
2018-07-12T04:32:58.226Z,15.25
2018-07-12T04:34:07.364Z,15.34
2018-07-12T04:35:16.503Z,15.38
2018-07-12T04:36:25.713Z,15.35
2018-07-12T04:37:34.849Z,15.44
2018-07-12T04:38:44.037Z,15.5
2018-07-12T04:39:52.898Z,15.49
2018-07-12T04:41:01.756Z,15.51
2018-07-12T04:42:10.618Z,15.49
2018-07-12T04:43:19.481Z,15.54
2018-07-12T04:44:28.663Z,15.43
2018-07-12T04:45:37.522Z,15.64
2018-07-12T04:46:46.380Z,15.59
2018-07-12T04:47:55.394Z,15.53
2018-07-12T04:49:04.808Z,15.46
2018-07-12T04:50:14.223Z,15.49
2018-07-12T04:51:23.087Z,15.5
2018-07-12T04:52:32.233Z,15.57
2018-07-12T04:53:41.523Z,15.53
2018-07-12T04:54:50.662Z,15.49
2018-07-12T04:55:59.525Z,15.49
2018-07-12T04:57:08.382Z,15.49
2018-07-12T04:58:17.598Z,15.51
2018-07-12T04:59:26.809Z,15.49
2018-07-12T05:00:35.673Z,15.54
2018-07-12T05:01:44.804Z,15.53
2018-07-12T05:02:53.666Z,15.5
2018-07-12T05:04:03.076Z,15.49
2018-07-12T05:05:11.934Z,15.51
2018-07-12T05:06:21.074Z,15.57
2018-07-12T05:07:29.934Z,15.6
2018-07-12T05:08:38.793Z,15.62
2018-07-12T05:09:47.650Z,15.64
2018-07-12T05:10:56.787Z,15.64
2018-07-12T05:12:05.931Z,15.64
2018-07-12T05:13:15.074Z,15.69
2018-07-12T05:14:23.933Z,15.74
2018-07-12T05:15:32.795Z,15.72
2018-07-12T05:16:42.081Z,15.67
2018-07-12T05:17:50.942Z,15.69
2018-07-12T05:18:59.799Z,15.65
2018-07-12T05:20:08.945Z,15.74
2018-07-12T05:21:17.805Z,15.76
2018-07-12T05:22:26.816Z,15.76
2018-07-12T05:23:35.681Z,15.83
2018-07-12T05:24:44.538Z,15.75
2018-07-12T05:25:53.690Z,15.89
2018-07-12T05:27:02.827Z,15.92
2018-07-12T05:28:12.047Z,15.93
2018-07-12T05:29:20.903Z,16
2018-07-12T05:30:29.764Z,15.97
2018-07-12T05:31:38.626Z,15.96
2018-07-12T05:32:47.485Z,16
2018-07-12T05:33:56.496Z,15.97
2018-07-12T05:35:05.633Z,16.01
2018-07-12T05:36:14.495Z,16.04
2018-07-12T05:37:23.357Z,16.01
2018-07-12T05:38:32.215Z,16.15
2018-07-12T05:39:41.354Z,16.15
2018-07-12T05:40:50.491Z,16.14
2018-07-12T05:41:59.353Z,16.15
2018-07-12T05:43:08.213Z,16.23
2018-07-12T05:44:17.072Z,16.09
2018-07-12T05:45:25.934Z,16.27
2018-07-12T05:46:34.814Z,16.25
2018-07-12T05:47:43.655Z,16.27
2018-07-12T05:48:52.518Z,16.28
2018-07-12T05:50:01.706Z,16.25
2018-07-12T05:51:10.716Z,16.35
2018-07-12T05:52:19.870Z,16.41
2018-07-12T05:53:28.732Z,16.45
2018-07-12T05:54:37.592Z,16.49
2018-07-12T05:55:46.451Z,16.5
2018-07-12T05:56:55.313Z,16.48
2018-07-12T05:58:04.172Z,16.57
2018-07-12T05:59:13.031Z,16.58
2018-07-12T06:00:22.175Z,16.6
2018-07-12T06:01:31.648Z,16.63
2018-07-12T06:02:40.511Z,16.58
2018-07-12T06:03:49.668Z,16.67
2018-07-12T06:04:58.529Z,16.7
2018-07-12T06:06:07.389Z,16.73
2018-07-12T06:07:16.259Z,16.68
2018-07-12T06:08:25.268Z,16.78
2018-07-12T06:09:34.132Z,16.7
2018-07-12T06:10:42.997Z,16.78
2018-07-12T06:11:51.854Z,16.83
2018-07-12T06:13:00.713Z,16.88
2018-07-12T06:14:09.890Z,16.85
2018-07-12T06:15:18.749Z,16.91
2018-07-12T06:16:27.892Z,16.88
2018-07-12T06:17:36.753Z,16.86
2018-07-12T06:18:45.948Z,16.88
2018-07-12T06:19:54.956Z,16.91
2018-07-12T06:21:04.096Z,16.97
2018-07-12T06:22:12.954Z,16.93
2018-07-12T06:23:22.095Z,16.89
2018-07-12T06:24:31.236Z,16.93
2018-07-12T06:25:40.498Z,16.91
2018-07-12T06:26:49.635Z,16.98
2018-07-12T06:27:58.500Z,17.07
2018-07-12T06:29:07.362Z,16.93
2018-07-12T06:30:16.220Z,17.07
2018-07-12T06:31:25.506Z,17.15
2018-07-12T06:32:34.363Z,17.12
2018-07-12T06:33:43.787Z,17.18
2018-07-12T06:34:52.650Z,17.12
2018-07-12T06:36:01.791Z,17.15
2018-07-12T06:37:10.973Z,17.21
2018-07-12T06:38:20.110Z,17.26
2018-07-12T06:39:28.971Z,17.26
2018-07-12T06:40:37.833Z,17.4
2018-07-12T06:41:46.695Z,17.38
2018-07-12T06:42:55.556Z,17.38
2018-07-12T06:44:04.417Z,17.43
2018-07-12T06:45:13.281Z,17.4
2018-07-12T06:46:22.418Z,17.44
2018-07-12T06:47:31.554Z,17.46
2018-07-12T06:48:40.415Z,17.54
2018-07-12T06:49:49.278Z,17.54
2018-07-12T06:50:58.142Z,17.48
2018-07-12T06:52:07.001Z,17.59
2018-07-12T06:53:15.861Z,17.56
2018-07-12T06:54:24.722Z,17.62
2018-07-12T06:55:33.860Z,17.64
2018-07-12T06:56:42.721Z,17.63
2018-07-12T06:57:51.581Z,17.64
2018-07-12T06:59:00.725Z,17.77
2018-07-12T07:00:09.587Z,17.71
2018-07-12T07:01:18.726Z,17.75
2018-07-12T07:02:27.586Z,17.78
2018-07-12T07:03:36.450Z,17.82
2018-07-12T07:04:45.313Z,17.82
2018-07-12T07:05:54.375Z,17.84
2018-07-12T07:07:03.485Z,17.86
2018-07-12T07:08:12.346Z,17.9
2018-07-12T07:09:21.208Z,17.95
2018-07-12T07:10:30.067Z,17.97
2018-07-12T07:11:39.275Z,18.08
2018-07-12T07:12:48.137Z,18.18
2018-07-12T07:13:57.273Z,18.18
2018-07-12T07:15:06.133Z,18.15
2018-07-12T07:16:14.995Z,18.14
2018-07-12T07:17:23.959Z,18.23
2018-07-12T07:18:33.094Z,18.23
2018-07-12T07:19:41.954Z,18.25
2018-07-12T07:20:50.816Z,18.2
2018-07-12T07:21:59.957Z,18.27
2018-07-12T07:23:08.967Z,18.33
2018-07-12T07:24:18.107Z,18.55
2018-07-12T07:25:26.969Z,18.54
2018-07-12T07:26:35.831Z,18.5
2018-07-12T07:27:44.695Z,18.54
2018-07-12T07:28:53.557Z,18.55
2018-07-12T07:30:02.423Z,18.57
2018-07-12T07:31:11.839Z,18.47
2018-07-12T07:32:20.722Z,18.6
2018-07-12T07:33:29.566Z,18.58
2018-07-12T07:34:38.425Z,18.6
2018-07-12T07:35:47.289Z,18.62
2018-07-12T07:36:56.151Z,18.65
2018-07-12T07:38:05.286Z,18.52
2018-07-12T07:39:14.156Z,18.73
2018-07-12T07:40:23.016Z,18.8
2018-07-12T07:41:31.877Z,18.78
2018-07-12T07:42:40.739Z,18.8
2018-07-12T07:43:49.600Z,18.82
2018-07-12T07:44:58.461Z,18.81
2018-07-12T07:46:07.482Z,18.75
2018-07-12T07:47:16.340Z,18.75
2018-07-12T07:48:25.202Z,18.78
2018-07-12T07:49:34.070Z,18.88
2018-07-12T07:50:43.207Z,18.82
2018-07-12T07:51:52.168Z,18.98
2018-07-12T07:53:01.031Z,18.95
2018-07-12T07:54:09.895Z,18.91
2018-07-12T07:55:19.037Z,18.91
2018-07-12T07:56:27.899Z,18.98
2018-07-12T07:57:36.762Z,18.92
2018-07-12T07:58:45.626Z,19.04
2018-07-12T07:59:54.491Z,19.02
2018-07-12T08:01:03.354Z,19.02
2018-07-12T08:02:12.515Z,19.13
2018-07-12T08:03:21.737Z,19.08
2018-07-12T08:04:31.271Z,19.11
2018-07-12T08:05:40.132Z,19.16
2018-07-12T08:06:48.995Z,19.32
2018-07-12T08:07:57.854Z,19.33
2018-07-12T08:09:07.155Z,19.4
2018-07-12T08:10:16.298Z,19.28
2018-07-12T08:11:25.159Z,19.39
2018-07-12T08:12:34.022Z,19.41
2018-07-12T08:13:42.880Z,19.36
2018-07-12T08:14:52.176Z,19.33
2018-07-12T08:16:01.037Z,19.39
2018-07-12T08:17:09.900Z,19.4
2018-07-12T08:18:18.762Z,19.43
2018-07-12T08:19:27.916Z,19.39
2018-07-12T08:20:36.928Z,19.47
2018-07-12T08:21:45.793Z,19.5
2018-07-12T08:22:54.655Z,19.43
2018-07-12T08:24:03.523Z,19.54
2018-07-12T08:25:12.386Z,19.51
2018-07-12T08:26:21.401Z,19.59
2018-07-12T08:27:30.266Z,19.68
2018-07-12T08:28:39.124Z,19.74
2018-07-12T08:29:48.033Z,19.73
2018-07-12T08:30:57.174Z,19.74
2018-07-12T08:32:06.316Z,19.78
2018-07-12T08:33:15.182Z,19.91
2018-07-12T08:34:24.037Z,19.86
2018-07-12T08:35:32.902Z,19.87
2018-07-12T08:36:41.765Z,19.81
2018-07-12T08:37:50.632Z,19.92
2018-07-12T08:38:59.776Z,19.91
2018-07-12T08:40:08.922Z,19.96
2018-07-12T08:41:17.784Z,20.03
2018-07-12T08:42:26.680Z,19.95
2018-07-12T08:43:35.563Z,20.17
2018-07-12T08:44:44.427Z,20.11
2018-07-12T08:45:53.294Z,20.13
2018-07-12T08:47:02.431Z,20.17
2018-07-12T08:48:11.293Z,20.32
2018-07-12T08:49:20.306Z,20.28
2018-07-12T08:50:29.171Z,20.32
2018-07-12T08:51:38.029Z,20.42
2018-07-12T08:52:46.891Z,20.51
2018-07-12T08:53:55.754Z,20.35
2018-07-12T08:55:04.771Z,20.54
2018-07-12T08:56:13.635Z,20.66
2018-07-12T08:57:22.500Z,20.47
2018-07-12T08:58:31.716Z,20.52
2018-07-12T08:59:40.578Z,20.7
2018-07-12T09:00:49.443Z,20.59
2018-07-12T09:01:58.584Z,20.5
2018-07-12T09:03:07.560Z,20.5
2018-07-12T09:04:16.787Z,20.51
2018-07-12T09:05:25.657Z,20.72
2018-07-12T09:06:34.625Z,20.69
2018-07-12T09:07:43.762Z,20.73
2018-07-12T09:08:52.624Z,20.8
2018-07-12T09:10:01.496Z,20.84
2018-07-12T09:11:10.354Z,20.91
2018-07-12T09:12:19.321Z,21.12
2018-07-12T09:13:28.460Z,21.12
2018-07-12T09:14:37.354Z,21.14
2018-07-12T09:15:46.252Z,21.31
2018-07-12T09:16:55.052Z,21.21
2018-07-12T09:18:04.167Z,20.97
2018-07-12T09:19:13.037Z,21.09
2018-07-12T09:20:21.899Z,21.27
2018-07-12T09:21:30.763Z,21.32
2018-07-12T09:22:39.627Z,21.5
2018-07-12T09:23:49.046Z,21.62
2018-07-12T09:24:57.910Z,21.74
2018-07-12T09:26:06.776Z,21.8
2018-07-12T09:27:15.917Z,21.83
2018-07-12T09:28:25.059Z,21.64
2018-07-12T09:29:34.277Z,21.86
2018-07-12T09:30:43.422Z,21.92
2018-07-12T09:31:52.289Z,21.9
2018-07-12T09:33:01.435Z,21.9
2018-07-12T09:34:10.302Z,21.8
2018-07-12T09:35:19.313Z,21.77
2018-07-12T09:36:28.457Z,21.72
2018-07-12T09:37:37.323Z,21.65
2018-07-12T09:38:46.190Z,21.8
2018-07-12T09:39:55.058Z,21.86
2018-07-12T09:41:04.840Z,21.96
2018-07-12T09:42:13.705Z,21.74
2018-07-12T09:43:22.570Z,21.96
2018-07-12T09:44:31.435Z,21.94
2018-07-12T09:45:40.578Z,22.05
2018-07-12T09:46:49.597Z,22
2018-07-12T09:47:58.743Z,21.99
2018-07-12T09:49:07.652Z,22.07
2018-07-12T09:50:16.482Z,22.28
2018-07-12T09:51:25.356Z,22.31
2018-07-12T09:52:34.226Z,22.22
2018-07-12T09:53:43.365Z,22.27
2018-07-12T09:54:52.791Z,22.09
2018-07-12T09:56:02.227Z,22.3
2018-07-12T09:57:11.561Z,22.47
2018-07-12T09:58:20.520Z,22.46
2018-07-12T09:59:29.384Z,22.42
2018-07-12T10:00:38.249Z,22.24
2018-07-12T10:01:47.422Z,22.17
2018-07-12T10:02:56.258Z,22.33
2018-07-12T10:04:05.125Z,22.3
2018-07-12T10:05:14.270Z,22.4
2018-07-12T10:06:23.420Z,22.54
2018-07-12T10:07:32.287Z,22.64
2018-07-12T10:08:41.154Z,22.46
2018-07-12T10:09:50.017Z,22.47
2018-07-12T10:10:59.156Z,22.46
2018-07-12T10:12:08.305Z,22.61
2018-07-12T10:13:17.167Z,22.68
2018-07-12T10:14:26.030Z,22.68
2018-07-12T10:15:35.168Z,22.73
2018-07-12T10:16:44.032Z,22.88
2018-07-12T10:17:52.897Z,22.95
2018-07-12T10:19:01.764Z,22.86
2018-07-12T10:20:10.634Z,22.82
2018-07-12T10:21:19.500Z,23.04
2018-07-12T10:22:28.366Z,23.19
2018-07-12T10:23:37.231Z,23.39
2018-07-12T10:24:46.372Z,23.51
2018-07-12T10:25:55.240Z,23.5
2018-07-12T10:27:04.106Z,23.5
2018-07-12T10:28:12.981Z,23.63
2018-07-12T10:29:22.405Z,23.75
2018-07-12T10:30:31.273Z,23.75
2018-07-12T10:31:40.416Z,23.73
2018-07-12T10:32:49.937Z,23.57
2018-07-12T10:33:58.800Z,23.32
2018-07-12T10:35:07.667Z,23.42
2018-07-12T10:36:16.806Z,23.54
2018-07-12T10:37:25.671Z,23.69
2018-07-12T10:38:34.693Z,23.57
2018-07-12T10:39:43.559Z,23.75
2018-07-12T10:40:52.424Z,23.84
2018-07-12T10:42:01.291Z,23.76
2018-07-12T10:43:10.157Z,23.78
2018-07-12T10:44:19.311Z,23.98
2018-07-12T10:45:28.185Z,23.98
2018-07-12T10:46:37.602Z,24.03
2018-07-12T10:47:46.473Z,24.18
2018-07-12T10:48:55.625Z,24.31
2018-07-12T10:50:04.492Z,24.42
2018-07-12T10:51:13.359Z,24.45
2018-07-12T10:52:22.230Z,24.43
2018-07-12T10:53:31.091Z,24.53
2018-07-12T10:54:40.231Z,24.28
2018-07-12T10:55:49.099Z,24.34
2018-07-12T10:56:57.962Z,24.18
2018-07-12T10:58:06.829Z,24.18
2018-07-12T10:59:15.979Z,24.45
2018-07-12T11:00:24.847Z,24.45
2018-07-12T11:01:33.817Z,24.53
2018-07-12T11:02:42.961Z,24.52
2018-07-12T11:03:52.102Z,24.67
2018-07-12T11:05:01.245Z,24.61
2018-07-12T11:06:10.393Z,24.61
2018-07-12T11:07:19.640Z,24.73
2018-07-12T11:08:28.508Z,24.57
2018-07-12T11:09:37.374Z,24.46
2018-07-12T11:10:46.245Z,24.58
2018-07-12T11:11:55.389Z,24.53
2018-07-12T11:13:04.615Z,24.46
2018-07-12T11:14:13.483Z,24.5
2018-07-12T11:15:23.182Z,24.28
2018-07-12T11:16:32.049Z,24.45
2018-07-12T11:17:40.917Z,24.53
2018-07-12T11:18:50.134Z,24.57
2018-07-12T11:19:59.008Z,24.83
2018-07-12T11:21:07.923Z,24.8
2018-07-12T11:22:17.373Z,24.77
2018-07-12T11:23:26.242Z,24.9
2018-07-12T11:24:35.112Z,25.08
2018-07-12T11:25:43.981Z,25.1
2018-07-12T11:26:52.850Z,25.02
2018-07-12T11:28:01.997Z,25.15
2018-07-12T11:29:10.864Z,25
2018-07-12T11:30:19.821Z,24.88
2018-07-12T11:31:28.877Z,24.85
2018-07-12T11:32:38.020Z,24.99
2018-07-12T11:33:46.887Z,24.87
2018-07-12T11:34:56.033Z,24.95
2018-07-12T11:36:04.901Z,25.02
2018-07-12T11:37:14.235Z,25
2018-07-12T11:38:23.103Z,24.98
2018-07-12T11:39:31.974Z,24.88
2018-07-12T11:40:41.117Z,24.87
2018-07-12T11:41:50.610Z,24.84
2018-07-12T11:42:59.475Z,24.81
2018-07-12T11:44:08.342Z,24.76
2018-07-12T11:45:17.211Z,24.73
2018-07-12T11:46:26.079Z,24.76
2018-07-12T11:47:34.951Z,24.8
2018-07-12T11:48:43.816Z,24.71
2018-07-12T11:49:52.681Z,24.5
2018-07-12T11:51:01.551Z,24.6
2018-07-12T11:52:10.417Z,24.55
2018-07-12T11:53:19.633Z,24.53
2018-07-12T11:54:28.499Z,24.61
2018-07-12T11:55:37.368Z,24.6
2018-07-12T11:56:46.233Z,24.76
2018-07-12T11:57:55.098Z,24.57
2018-07-12T11:59:04.239Z,24.65
2018-07-12T12:00:13.105Z,24.69
2018-07-12T12:01:22.302Z,24.77
2018-07-12T12:02:31.498Z,25.05
2018-07-12T12:03:40.691Z,25.24
2018-07-12T12:04:49.561Z,25.38
2018-07-12T12:05:58.433Z,25.51
2018-07-12T12:07:07.589Z,25.75
2018-07-12T12:08:16.458Z,25.94
2018-07-12T12:09:25.615Z,25.83
2018-07-12T12:10:34.660Z,25.9
2018-07-12T12:11:44.087Z,26.13
2018-07-12T12:12:53.347Z,26.5
2018-07-12T12:14:02.645Z,26.67
2018-07-12T12:15:11.521Z,26.75
2018-07-12T12:16:20.389Z,26.84
2018-07-12T12:17:29.262Z,26.94
2018-07-12T12:18:38.130Z,27.13
2018-07-12T12:19:47.002Z,27.36
2018-07-12T12:20:55.876Z,27.07
2018-07-12T12:22:05.026Z,27.02
2018-07-12T12:23:14.175Z,26.89
2018-07-12T12:24:23.047Z,27.06
2018-07-12T12:25:31.920Z,27.18
2018-07-12T12:26:40.795Z,27.24
2018-07-12T12:27:49.672Z,27.49
2018-07-12T12:28:58.545Z,27.74
2018-07-12T12:30:07.419Z,27.88
2018-07-12T12:31:16.293Z,27.94
2018-07-12T12:32:25.442Z,27.99
2018-07-12T12:33:34.427Z,27.78
2018-07-12T12:34:43.634Z,27.69
2018-07-12T12:35:52.509Z,27.49
2018-07-12T12:37:01.384Z,27.21
2018-07-12T12:38:10.537Z,27.17
2018-07-12T12:39:19.510Z,27.06
2018-07-12T12:40:28.659Z,26.99
2018-07-12T12:41:37.530Z,26.97
2018-07-12T12:42:46.403Z,26.92
2018-07-12T12:43:55.273Z,26.91
2018-07-12T12:45:04.145Z,26.85
2018-07-12T12:46:13.018Z,26.77
2018-07-12T12:47:21.889Z,26.77
2018-07-12T12:48:31.038Z,26.77
2018-07-12T12:49:40.191Z,26.66
2018-07-12T12:50:49.087Z,26.69
2018-07-12T12:51:58.245Z,26.7
2018-07-12T12:53:07.125Z,26.91
2018-07-12T12:54:15.994Z,27.19
2018-07-12T12:55:24.867Z,27.22
2018-07-12T12:56:33.839Z,27.44
2018-07-12T12:57:42.710Z,27.46
2018-07-12T12:58:51.877Z,27.5
2018-07-12T13:00:01.046Z,27.5
2018-07-12T13:01:09.915Z,27.44
2018-07-12T13:02:18.786Z,27.62
2018-07-12T13:03:27.657Z,27.51
2018-07-12T13:04:36.534Z,27.43
2018-07-12T13:05:45.406Z,27.51
2018-07-12T13:06:54.276Z,27.66
2018-07-12T13:08:03.271Z,27.74
2018-07-12T13:09:12.888Z,27.74
2018-07-12T13:10:21.766Z,27.43
2018-07-12T13:11:30.631Z,27.49
2018-07-12T13:12:39.504Z,27.36
2018-07-12T13:13:48.375Z,27.25
2018-07-12T13:14:57.248Z,27.21
2018-07-12T13:16:06.125Z,27.07
2018-07-12T13:17:15.270Z,27.03
2018-07-12T13:18:24.421Z,26.92
2018-07-12T13:19:33.290Z,26.88
2018-07-12T13:20:42.435Z,26.84
2018-07-12T13:21:51.579Z,26.84
2018-07-12T13:23:00.447Z,26.85
2018-07-12T13:24:09.317Z,27.02
2018-07-12T13:25:18.475Z,27.14
2018-07-12T13:26:27.347Z,27.44
2018-07-12T13:27:36.222Z,27.77
2018-07-12T13:28:46.324Z,28.02
2018-07-12T13:29:55.200Z,28.21
2018-07-12T13:31:04.272Z,28.33
2018-07-12T13:32:13.146Z,28.36
2018-07-12T13:33:22.297Z,28.41
2018-07-12T13:34:31.171Z,28.81
2018-07-12T13:35:40.059Z,29.04
2018-07-12T13:36:49.215Z,28.98
2018-07-12T13:37:58.090Z,29.39
2018-07-12T13:39:06.968Z,29.52
2018-07-12T13:40:15.844Z,29.34
2018-07-12T13:41:24.722Z,29.31
2018-07-12T13:42:33.875Z,29.14
2018-07-12T13:43:42.752Z,29.14
2018-07-12T13:44:51.626Z,29.06
2018-07-12T13:46:00.503Z,29.11
2018-07-12T13:47:09.379Z,29
2018-07-12T13:48:18.680Z,28.78
2018-07-12T13:49:27.556Z,28.83
2018-07-12T13:50:36.431Z,28.58
2018-07-12T13:51:45.584Z,28.61
2018-07-12T13:52:54.732Z,28.37
2018-07-12T13:54:03.606Z,28.43
2018-07-12T13:55:12.482Z,28.4
2018-07-12T13:56:21.356Z,28.43
2018-07-12T13:57:30.230Z,28.48
2018-07-12T13:58:39.536Z,28.54
2018-07-12T13:59:48.412Z,28.39
2018-07-12T14:00:57.285Z,28.36
2018-07-12T14:02:06.446Z,28.3
2018-07-12T14:03:15.870Z,28.19
2018-07-12T14:04:24.741Z,28
2018-07-12T14:05:34.055Z,28.15
2018-07-12T14:06:42.923Z,28.21
2018-07-12T14:07:51.796Z,28.34
2018-07-12T14:09:00.670Z,28.64
2018-07-12T14:10:09.546Z,28.77
2018-07-12T14:11:18.693Z,29.02
2018-07-12T14:12:27.566Z,29.11
2018-07-12T14:13:36.441Z,29.28
2018-07-12T14:14:45.591Z,29.37
2018-07-12T14:15:54.465Z,29.7
2018-07-12T14:17:03.341Z,29.68
2018-07-12T14:18:12.217Z,29.94
2018-07-12T14:19:21.093Z,29.73
2018-07-12T14:20:29.970Z,29.94
2018-07-12T14:21:38.849Z,30.17
2018-07-12T14:22:47.726Z,30.08
2018-07-12T14:23:56.880Z,30.15
2018-07-12T14:25:05.757Z,30.04
2018-07-12T14:26:14.635Z,30.08
2018-07-12T14:27:23.520Z,29.85
2018-07-12T14:28:32.944Z,30.1
2018-07-12T14:29:41.817Z,30.16
2018-07-12T14:30:50.694Z,30.34
2018-07-12T14:31:59.574Z,30.46
2018-07-12T14:33:08.451Z,30.57
2018-07-12T14:34:17.431Z,30.7
2018-07-12T14:35:26.309Z,30.8
2018-07-12T14:36:35.462Z,30.79
2018-07-12T14:37:44.354Z,30.73
2018-07-12T14:38:53.220Z,30.89
2018-07-12T14:40:02.445Z,30.65
2018-07-12T14:41:11.344Z,30.95
2018-07-12T14:42:20.213Z,31.14
2018-07-12T14:43:29.092Z,31.38
2018-07-12T14:44:37.969Z,31.38
2018-07-12T14:45:47.002Z,31.54
2018-07-12T14:46:56.205Z,31.21
2018-07-12T14:48:05.035Z,31.36
2018-07-12T14:49:13.914Z,31.61
2018-07-12T14:50:22.794Z,31.61
2018-07-12T14:51:31.672Z,31.57
2018-07-12T14:52:40.554Z,31.51